Аэропорт
Магнитогорск (USCM)

 USCM / MQF
ЗЦ Екатеринбург
Екатеринбург (USSS)
Челябинск (USCC)
 53.39310, 58.75570  / 1430 ft

 USCM 161030Z 18005MPS 9999 SCT040 M12/M15 Q1017 R18/820257 NOSIG RMK QFE725

показать схемы
Название сценария Тип сценария Flight Simulator 9 Flight Simulator X Prepar3D v2 Prepar3D v3 Prepar3D v4 xPlane
Магнитогорск бесплатный


2018 © VATRUS division